Waupaca, WI (54981)

6:44 PM CST on February 07, 2016 (GMT -0600)
Waupaca_9er | | Change Station
CLOSE
Current Station
Personal Weather Station
Location: Waupaca, WI
Elevation: 919 ft
Nearby Weather Stations

Elev 919 ft 44.36 °N, 89.09 °W | Updated 9 seconds ago

Mostly Cloudy
Mostly Cloudy
36.9 °F
Feels Like 32 °F
N
6.0
Wind Variable Wind from SW
Gusts 10.7 mph

Today
High -- | Low -- °F
--% Chance of Precip.
Yesterday
High -- | Low -- °F
Precip. -- in
Pressure 29.62 in
Visibility 10.0 miles
Clouds Mostly Cloudy 4700 ft
Windchill 32 °F
Dew Point 26 °F
Humidity 65%
Rainfall 0.00 in
Snow Depth Not available.
7:07 AM 5:13 PM
Waning Crescent, 0% visible
METAR KPCZ 080035Z AUTO 22007KT 10SM BKN047 04/M02 A2962 RMK AO2 T00411023
Pressure 29.62 in
Visibility 10.0 miles
Clouds Mostly Cloudy 4700 ft
Windchill 32 °F
Dew Point 26 °F
Humidity 65%
Rainfall 0.00 in
Snow Depth Not available.
7:07 AM 5:13 PM
Waning Crescent, 0% visible
METAR KPCZ 080035Z AUTO 22007KT 10SM BKN047 04/M02 A2962 RMK AO2 T00411023

10-Day Weather Forecast

Almanac

Astronomy

Feb. 07, 2016 Rise Set
Actual Time
Civil Twilight
Nautical Twilight
Astronomical Twilight
Moon
Length of Visible Light
Length of Day
Tomorrow will be .
, % of the Moon is Illuminated

Today's Extremes

State Highs State Lows

Community

WunderPhotos

Upload Photos

1,891,339 photos uploaded!

WunderBlog® & News

Nearby

Air Quality

  Air Quality AQ Index Pollutant
Not available.

Snow Depth

Station Depth Elevation

Earthquake Activity

City Distance Mag. Time & Date
Minimum magnitude displayed is 2.5.

Coastal Water Temperatures

Place Temperature

Stations

Nearby Weather Stations

Station Location Temp. Windchill Dew Point Humidity Wind Precip. Elev Updated Type
                   

Watches & Warnings

There are currently no watches in effect.